sensor_id;sensor_type;location;lat;lon;timestamp;P1;durP1;ratioP1;P2;durP2;ratioP2
4422;SDS011;2224;49.814;8.650;2022-08-06T00:01:52;3.73;;;3.07;;
4422;SDS011;2224;49.814;8.650;2022-08-06T00:04:18;3.93;;;2.87;;
4422;SDS011;2224;49.814;8.650;2022-08-06T00:06:43;3.33;;;2.77;;
4422;SDS011;2224;49.814;8.650;2022-08-06T00:09:09;3.40;;;2.97;;
4422;SDS011;2224;49.814;8.650;2022-08-06T00:11:36;3.20;;;3.00;;
4422;SDS011;2224;49.814;8.650;2022-08-06T00:14:02;3.03;;;2.80;;
4422;SDS011;2224;49.814;8.650;2022-08-06T00:16:27;3.33;;;3.13;;
4422;SDS011;2224;49.814;8.650;2022-08-06T00:18:53;3.47;;;3.10;;
4422;SDS011;2224;49.814;8.650;2022-08-06T00:21:19;3.47;;;3.17;;
4422;SDS011;2224;49.814;8.650;2022-08-06T00:23:45;3.10;;;2.87;;
4422;SDS011;2224;49.814;8.650;2022-08-06T00:26:10;3.67;;;3.47;;
4422;SDS011;2224;49.814;8.650;2022-08-06T00:28:35;7.60;;;3.47;;
4422;SDS011;2224;49.814;8.650;2022-08-06T00:31:02;3.40;;;3.10;;
4422;SDS011;2224;49.814;8.650;2022-08-06T00:33:29;3.73;;;2.67;;
4422;SDS011;2224;49.814;8.650;2022-08-06T00:35:54;4.33;;;3.07;;
4422;SDS011;2224;49.814;8.650;2022-08-06T00:38:20;6.00;;;5.40;;
4422;SDS011;2224;49.814;8.650;2022-08-06T00:40:46;4.83;;;3.20;;
4422;SDS011;2224;49.814;8.650;2022-08-06T00:43:13;3.20;;;3.00;;
4422;SDS011;2224;49.814;8.650;2022-08-06T00:45:38;4.90;;;3.30;;
4422;SDS011;2224;49.814;8.650;2022-08-06T00:48:04;3.90;;;3.17;;
4422;SDS011;2224;49.814;8.650;2022-08-06T00:50:30;4.27;;;3.40;;
4422;SDS011;2224;49.814;8.650;2022-08-06T00:52:56;3.00;;;2.70;;
4422;SDS011;2224;49.814;8.650;2022-08-06T00:55:22;3.60;;;3.27;;
4422;SDS011;2224;49.814;8.650;2022-08-06T00:57:48;3.17;;;2.87;;
4422;SDS011;2224;49.814;8.650;2022-08-06T01:00:14;3.00;;;2.80;;
4422;SDS011;2224;49.814;8.650;2022-08-06T01:02:39;2.80;;;2.60;;
4422;SDS011;2224;49.814;8.650;2022-08-06T01:05:05;5.60;;;3.17;;
4422;SDS011;2224;49.814;8.650;2022-08-06T01:07:31;4.13;;;2.80;;
4422;SDS011;2224;49.814;8.650;2022-08-06T01:09:56;2.93;;;2.70;;
4422;SDS011;2224;49.814;8.650;2022-08-06T01:12:22;3.97;;;2.90;;
4422;SDS011;2224;49.814;8.650;2022-08-06T01:14:47;3.47;;;2.70;;
4422;SDS011;2224;49.814;8.650;2022-08-06T01:17:21;3.73;;;2.20;;
4422;SDS011;2224;49.814;8.650;2022-08-06T01:28:14;4.70;;;2.30;;
4422;SDS011;2224;49.814;8.650;2022-08-06T01:30:48;2.90;;;2.70;;
4422;SDS011;2224;49.814;8.650;2022-08-06T01:35:53;4.60;;;2.60;;
4422;SDS011;2224;49.814;8.650;2022-08-06T01:38:22;2.20;;;2.00;;
4422;SDS011;2224;49.814;8.650;2022-08-06T01:40:51;2.20;;;2.00;;
4422;SDS011;2224;49.814;8.650;2022-08-06T01:43:18;5.40;;;2.37;;
4422;SDS011;2224;49.814;8.650;2022-08-06T01:45:46;2.80;;;1.90;;
4422;SDS011;2224;49.814;8.650;2022-08-06T01:48:13;2.93;;;2.03;;
4422;SDS011;2224;49.814;8.650;2022-08-06T01:50:44;2.33;;;2.00;;
4422;SDS011;2224;49.814;8.650;2022-08-06T01:53:13;5.00;;;2.37;;
4422;SDS011;2224;49.814;8.650;2022-08-06T01:55:42;2.13;;;1.93;;
4422;SDS011;2224;49.814;8.650;2022-08-06T01:58:09;2.80;;;1.70;;
4422;SDS011;2224;49.814;8.650;2022-08-06T02:00:37;2.37;;;1.80;;
4422;SDS011;2224;49.814;8.650;2022-08-06T02:03:08;1.80;;;1.70;;
4422;SDS011;2224;49.814;8.650;2022-08-06T02:05:36;3.30;;;2.40;;
4422;SDS011;2224;49.814;8.650;2022-08-06T02:08:02;2.30;;;2.07;;
4422;SDS011;2224;49.814;8.650;2022-08-06T02:10:28;3.20;;;2.17;;
4422;SDS011;2224;49.814;8.650;2022-08-06T02:12:55;5.47;;;2.60;;
4422;SDS011;2224;49.814;8.650;2022-08-06T02:15:23;3.60;;;2.17;;
4422;SDS011;2224;49.814;8.650;2022-08-06T02:17:50;2.60;;;2.10;;
4422;SDS011;2224;49.814;8.650;2022-08-06T02:20:37;1.90;;;1.80;;
4422;SDS011;2224;49.814;8.650;2022-08-06T02:23:07;2.10;;;1.87;;
4422;SDS011;2224;49.814;8.650;2022-08-06T02:25:36;4.13;;;1.87;;
4422;SDS011;2224;49.814;8.650;2022-08-06T02:28:04;3.50;;;2.30;;
4422;SDS011;2224;49.814;8.650;2022-08-06T02:30:32;2.07;;;1.60;;
4422;SDS011;2224;49.814;8.650;2022-08-06T02:33:00;2.20;;;2.00;;
4422;SDS011;2224;49.814;8.650;2022-08-06T02:35:26;2.03;;;1.83;;
4422;SDS011;2224;49.814;8.650;2022-08-06T02:37:55;2.77;;;1.90;;
4422;SDS011;2224;49.814;8.650;2022-08-06T02:40:23;4.70;;;2.30;;
4422;SDS011;2224;49.814;8.650;2022-08-06T02:43:04;2.17;;;1.70;;
4422;SDS011;2224;49.814;8.650;2022-08-06T02:45:44;2.30;;;2.10;;
4422;SDS011;2224;49.814;8.650;2022-08-06T02:50:39;2.07;;;1.87;;
4422;SDS011;2224;49.814;8.650;2022-08-06T02:53:13;2.00;;;1.90;;
4422;SDS011;2224;49.814;8.650;2022-08-06T02:55:42;2.80;;;2.30;;
4422;SDS011;2224;49.814;8.650;2022-08-06T02:58:13;3.00;;;2.03;;
4422;SDS011;2224;49.814;8.650;2022-08-06T03:00:44;2.20;;;1.70;;
4422;SDS011;2224;49.814;8.650;2022-08-06T03:03:10;2.30;;;2.10;;
4422;SDS011;2224;49.814;8.650;2022-08-06T03:05:38;2.30;;;1.63;;
4422;SDS011;2224;49.814;8.650;2022-08-06T03:08:06;2.20;;;1.87;;
4422;SDS011;2224;49.814;8.650;2022-08-06T03:10:33;1.60;;;1.33;;
4422;SDS011;2224;49.814;8.650;2022-08-06T03:13:00;2.43;;;1.90;;
4422;SDS011;2224;49.814;8.650;2022-08-06T03:15:26;4.20;;;1.70;;
4422;SDS011;2224;49.814;8.650;2022-08-06T03:17:53;9.23;;;2.00;;
4422;SDS011;2224;49.814;8.650;2022-08-06T03:20:23;2.17;;;1.97;;
4422;SDS011;2224;49.814;8.650;2022-08-06T03:22:50;3.03;;;2.10;;
4422;SDS011;2224;49.814;8.650;2022-08-06T03:25:17;1.77;;;1.67;;
4422;SDS011;2224;49.814;8.650;2022-08-06T03:27:44;2.20;;;2.00;;
4422;SDS011;2224;49.814;8.650;2022-08-06T03:30:13;4.27;;;1.90;;
4422;SDS011;2224;49.814;8.650;2022-08-06T03:32:39;2.40;;;1.73;;
4422;SDS011;2224;49.814;8.650;2022-08-06T03:35:06;2.50;;;1.50;;
4422;SDS011;2224;49.814;8.650;2022-08-06T03:37:33;2.93;;;2.00;;
4422;SDS011;2224;49.814;8.650;2022-08-06T03:39:59;3.77;;;1.90;;
4422;SDS011;2224;49.814;8.650;2022-08-06T03:42:26;3.20;;;1.67;;
4422;SDS011;2224;49.814;8.650;2022-08-06T03:44:51;3.03;;;1.90;;
4422;SDS011;2224;49.814;8.650;2022-08-06T03:47:21;2.90;;;1.93;;
4422;SDS011;2224;49.814;8.650;2022-08-06T03:49:57;2.10;;;1.90;;
4422;SDS011;2224;49.814;8.650;2022-08-06T03:52:28;5.60;;;1.83;;
4422;SDS011;2224;49.814;8.650;2022-08-06T03:54:55;2.83;;;1.90;;
4422;SDS011;2224;49.814;8.650;2022-08-06T03:57:24;2.20;;;1.77;;
4422;SDS011;2224;49.814;8.650;2022-08-06T03:59:52;3.57;;;2.07;;
4422;SDS011;2224;49.814;8.650;2022-08-06T04:02:18;3.13;;;1.80;;
4422;SDS011;2224;49.814;8.650;2022-08-06T04:04:45;3.23;;;1.87;;
4422;SDS011;2224;49.814;8.650;2022-08-06T04:07:14;2.37;;;2.00;;
4422;SDS011;2224;49.814;8.650;2022-08-06T04:09:40;1.90;;;1.80;;
4422;SDS011;2224;49.814;8.650;2022-08-06T04:12:07;2.13;;;1.80;;
4422;SDS011;2224;49.814;8.650;2022-08-06T04:14:33;1.77;;;1.67;;
4422;SDS011;2224;49.814;8.650;2022-08-06T04:16:58;2.17;;;1.90;;
4422;SDS011;2224;49.814;8.650;2022-08-06T04:19:25;1.83;;;1.73;;
4422;SDS011;2224;49.814;8.650;2022-08-06T04:21:52;4.33;;;2.23;;
4422;SDS011;2224;49.814;8.650;2022-08-06T04:24:17;2.27;;;2.07;;
4422;SDS011;2224;49.814;8.650;2022-08-06T04:26:43;2.63;;;1.90;;
4422;SDS011;2224;49.814;8.650;2022-08-06T04:29:11;4.73;;;2.20;;
4422;SDS011;2224;49.814;8.650;2022-08-06T04:31:37;2.50;;;2.30;;
4422;SDS011;2224;49.814;8.650;2022-08-06T04:34:03;1.80;;;1.70;;
4422;SDS011;2224;49.814;8.650;2022-08-06T04:36:29;4.10;;;2.07;;
4422;SDS011;2224;49.814;8.650;2022-08-06T04:38:55;2.57;;;2.37;;
4422;SDS011;2224;49.814;8.650;2022-08-06T04:41:21;3.00;;;2.17;;
4422;SDS011;2224;49.814;8.650;2022-08-06T04:43:47;2.07;;;1.97;;
4422;SDS011;2224;49.814;8.650;2022-08-06T04:46:13;2.80;;;2.00;;
4422;SDS011;2224;49.814;8.650;2022-08-06T04:48:38;2.17;;;2.00;;
4422;SDS011;2224;49.814;8.650;2022-08-06T04:51:04;2.83;;;2.10;;
4422;SDS011;2224;49.814;8.650;2022-08-06T04:53:37;2.47;;;2.27;;
4422;SDS011;2224;49.814;8.650;2022-08-06T04:56:04;6.20;;;2.40;;
4422;SDS011;2224;49.814;8.650;2022-08-06T04:58:33;2.47;;;2.27;;
4422;SDS011;2224;49.814;8.650;2022-08-06T05:00:59;2.43;;;2.10;;
4422;SDS011;2224;49.814;8.650;2022-08-06T05:03:25;2.00;;;1.90;;
4422;SDS011;2224;49.814;8.650;2022-08-06T05:05:52;2.73;;;2.20;;
4422;SDS011;2224;49.814;8.650;2022-08-06T05:08:40;2.93;;;2.20;;
4422;SDS011;2224;49.814;8.650;2022-08-06T05:11:23;2.80;;;2.10;;
4422;SDS011;2224;49.814;8.650;2022-08-06T05:13:54;2.57;;;2.37;;
4422;SDS011;2224;49.814;8.650;2022-08-06T05:16:22;2.40;;;2.20;;
4422;SDS011;2224;49.814;8.650;2022-08-06T05:18:50;2.80;;;2.60;;
4422;SDS011;2224;49.814;8.650;2022-08-06T05:21:23;3.87;;;2.30;;
4422;SDS011;2224;49.814;8.650;2022-08-06T05:23:53;3.83;;;2.70;;
4422;SDS011;2224;49.814;8.650;2022-08-06T05:26:20;2.83;;;2.27;;
4422;SDS011;2224;49.814;8.650;2022-08-06T05:28:46;2.00;;;1.80;;
4422;SDS011;2224;49.814;8.650;2022-08-06T05:31:11;2.13;;;2.00;;
4422;SDS011;2224;49.814;8.650;2022-08-06T05:33:38;2.63;;;1.90;;
4422;SDS011;2224;49.814;8.650;2022-08-06T05:36:08;2.40;;;2.10;;
4422;SDS011;2224;49.814;8.650;2022-08-06T05:38:39;2.43;;;2.23;;
4422;SDS011;2224;49.814;8.650;2022-08-06T05:41:05;2.20;;;2.00;;
4422;SDS011;2224;49.814;8.650;2022-08-06T05:43:38;2.90;;;2.20;;
4422;SDS011;2224;49.814;8.650;2022-08-06T05:46:07;2.73;;;2.30;;
4422;SDS011;2224;49.814;8.650;2022-08-06T05:48:36;2.33;;;1.93;;
4422;SDS011;2224;49.814;8.650;2022-08-06T05:51:10;3.83;;;2.20;;
4422;SDS011;2224;49.814;8.650;2022-08-06T05:53:40;4.53;;;1.87;;
4422;SDS011;2224;49.814;8.650;2022-08-06T05:56:18;2.40;;;2.10;;
4422;SDS011;2224;49.814;8.650;2022-08-06T05:58:58;3.07;;;2.17;;
4422;SDS011;2224;49.814;8.650;2022-08-06T06:01:25;2.27;;;1.77;;
4422;SDS011;2224;49.814;8.650;2022-08-06T06:03:51;2.10;;;1.77;;
4422;SDS011;2224;49.814;8.650;2022-08-06T06:06:21;2.60;;;2.40;;
4422;SDS011;2224;49.814;8.650;2022-08-06T06:08:47;3.17;;;1.93;;
4422;SDS011;2224;49.814;8.650;2022-08-06T06:11:13;3.20;;;2.20;;
4422;SDS011;2224;49.814;8.650;2022-08-06T06:13:40;2.33;;;2.23;;
4422;SDS011;2224;49.814;8.650;2022-08-06T06:16:09;2.20;;;2.00;;
4422;SDS011;2224;49.814;8.650;2022-08-06T06:18:54;3.10;;;2.10;;
4422;SDS011;2224;49.814;8.650;2022-08-06T06:29:57;3.23;;;2.00;;
4422;SDS011;2224;49.814;8.650;2022-08-06T06:35:02;3.50;;;2.33;;
4422;SDS011;2224;49.814;8.650;2022-08-06T06:40:17;1.77;;;1.67;;
4422;SDS011;2224;49.814;8.650;2022-08-06T06:45:30;2.80;;;1.80;;
4422;SDS011;2224;49.814;8.650;2022-08-06T06:48:19;3.13;;;1.90;;
4422;SDS011;2224;49.814;8.650;2022-08-06T06:50:57;3.77;;;2.20;;
4422;SDS011;2224;49.814;8.650;2022-08-06T06:53:28;2.30;;;2.10;;
4422;SDS011;2224;49.814;8.650;2022-08-06T06:55:54;3.70;;;1.80;;
4422;SDS011;2224;49.814;8.650;2022-08-06T06:58:26;2.10;;;1.90;;
4422;SDS011;2224;49.814;8.650;2022-08-06T07:00:57;2.50;;;1.70;;
4422;SDS011;2224;49.814;8.650;2022-08-06T07:03:23;5.13;;;2.10;;
4422;SDS011;2224;49.814;8.650;2022-08-06T07:05:49;2.47;;;1.80;;
4422;SDS011;2224;49.814;8.650;2022-08-06T07:08:16;2.43;;;2.07;;
4422;SDS011;2224;49.814;8.650;2022-08-06T07:10:44;2.10;;;1.93;;
4422;SDS011;2224;49.814;8.650;2022-08-06T07:13:10;6.43;;;1.80;;
4422;SDS011;2224;49.814;8.650;2022-08-06T07:15:37;2.37;;;1.70;;
4422;SDS011;2224;49.814;8.650;2022-08-06T07:18:03;1.83;;;1.73;;
4422;SDS011;2224;49.814;8.650;2022-08-06T07:20:29;1.73;;;1.63;;
4422;SDS011;2224;49.814;8.650;2022-08-06T07:22:57;1.80;;;1.70;;
4422;SDS011;2224;49.814;8.650;2022-08-06T07:25:23;1.77;;;1.67;;
4422;SDS011;2224;49.814;8.650;2022-08-06T07:27:50;2.00;;;1.90;;
4422;SDS011;2224;49.814;8.650;2022-08-06T07:30:17;4.17;;;2.30;;
4422;SDS011;2224;49.814;8.650;2022-08-06T07:32:44;2.23;;;1.50;;
4422;SDS011;2224;49.814;8.650;2022-08-06T07:35:10;1.97;;;1.37;;
4422;SDS011;2224;49.814;8.650;2022-08-06T07:37:37;2.10;;;1.97;;
4422;SDS011;2224;49.814;8.650;2022-08-06T07:40:07;2.00;;;1.87;;
4422;SDS011;2224;49.814;8.650;2022-08-06T07:42:36;1.93;;;1.50;;
4422;SDS011;2224;49.814;8.650;2022-08-06T07:45:03;1.80;;;1.60;;
4422;SDS011;2224;49.814;8.650;2022-08-06T07:47:35;2.87;;;1.90;;
4422;SDS011;2224;49.814;8.650;2022-08-06T07:50:03;1.67;;;1.57;;
4422;SDS011;2224;49.814;8.650;2022-08-06T07:52:29;3.87;;;1.53;;
4422;SDS011;2224;49.814;8.650;2022-08-06T07:54:54;1.97;;;1.43;;
4422;SDS011;2224;49.814;8.650;2022-08-06T07:57:21;3.47;;;1.77;;
4422;SDS011;2224;49.814;8.650;2022-08-06T07:59:48;1.47;;;1.30;;
4422;SDS011;2224;49.814;8.650;2022-08-06T08:02:14;2.27;;;1.47;;
4422;SDS011;2224;49.814;8.650;2022-08-06T08:04:41;2.23;;;1.53;;
4422;SDS011;2224;49.814;8.650;2022-08-06T08:07:25;2.00;;;1.30;;
4422;SDS011;2224;49.814;8.650;2022-08-06T08:09:53;2.43;;;1.33;;
4422;SDS011;2224;49.814;8.650;2022-08-06T08:12:19;3.50;;;2.10;;
4422;SDS011;2224;49.814;8.650;2022-08-06T08:14:46;1.47;;;1.10;;
4422;SDS011;2224;49.814;8.650;2022-08-06T08:17:12;1.47;;;1.37;;
4422;SDS011;2224;49.814;8.650;2022-08-06T08:19:39;2.43;;;1.40;;
4422;SDS011;2224;49.814;8.650;2022-08-06T08:22:06;2.20;;;1.50;;
4422;SDS011;2224;49.814;8.650;2022-08-06T08:24:38;1.60;;;1.50;;
4422;SDS011;2224;49.814;8.650;2022-08-06T08:27:05;2.47;;;1.30;;
4422;SDS011;2224;49.814;8.650;2022-08-06T08:29:35;2.47;;;1.87;;
4422;SDS011;2224;49.814;8.650;2022-08-06T08:32:02;1.87;;;1.30;;
4422;SDS011;2224;49.814;8.650;2022-08-06T08:34:27;3.53;;;1.27;;
4422;SDS011;2224;49.814;8.650;2022-08-06T08:36:53;2.67;;;1.20;;
4422;SDS011;2224;49.814;8.650;2022-08-06T08:39:18;1.70;;;1.60;;
4422;SDS011;2224;49.814;8.650;2022-08-06T08:41:46;2.27;;;1.80;;
4422;SDS011;2224;49.814;8.650;2022-08-06T08:44:12;2.83;;;1.70;;
4422;SDS011;2224;49.814;8.650;2022-08-06T08:46:39;3.07;;;1.53;;
4422;SDS011;2224;49.814;8.650;2022-08-06T08:49:06;2.07;;;1.20;;
4422;SDS011;2224;49.814;8.650;2022-08-06T08:51:34;6.73;;;1.87;;
4422;SDS011;2224;49.814;8.650;2022-08-06T08:54:02;2.90;;;1.67;;
4422;SDS011;2224;49.814;8.650;2022-08-06T08:56:31;4.37;;;1.40;;
4422;SDS011;2224;49.814;8.650;2022-08-06T08:58:57;3.23;;;1.40;;
4422;SDS011;2224;49.814;8.650;2022-08-06T09:01:22;2.63;;;1.70;;
4422;SDS011;2224;49.814;8.650;2022-08-06T09:03:48;1.53;;;1.30;;
4422;SDS011;2224;49.814;8.650;2022-08-06T09:06:13;3.50;;;1.30;;
4422;SDS011;2224;49.814;8.650;2022-08-06T09:08:39;1.60;;;1.27;;
4422;SDS011;2224;49.814;8.650;2022-08-06T09:11:05;1.13;;;0.90;;
4422;SDS011;2224;49.814;8.650;2022-08-06T09:13:31;2.70;;;1.20;;
4422;SDS011;2224;49.814;8.650;2022-08-06T09:15:58;1.23;;;1.13;;
4422;SDS011;2224;49.814;8.650;2022-08-06T09:18:24;1.97;;;1.23;;
4422;SDS011;2224;49.814;8.650;2022-08-06T09:20:50;2.30;;;1.20;;
4422;SDS011;2224;49.814;8.650;2022-08-06T09:23:16;3.23;;;1.27;;
4422;SDS011;2224;49.814;8.650;2022-08-06T09:25:44;1.43;;;1.00;;
4422;SDS011;2224;49.814;8.650;2022-08-06T09:31:04;1.80;;;1.20;;
4422;SDS011;2224;49.814;8.650;2022-08-06T09:33:33;1.83;;;1.20;;
4422;SDS011;2224;49.814;8.650;2022-08-06T09:36:03;2.17;;;1.00;;
4422;SDS011;2224;49.814;8.650;2022-08-06T09:38:33;1.27;;;1.17;;
4422;SDS011;2224;49.814;8.650;2022-08-06T09:41:11;2.67;;;1.20;;
4422;SDS011;2224;49.814;8.650;2022-08-06T09:43:37;3.10;;;1.63;;
4422;SDS011;2224;49.814;8.650;2022-08-06T09:46:03;1.53;;;1.10;;
4422;SDS011;2224;49.814;8.650;2022-08-06T09:48:29;2.00;;;1.23;;
4422;SDS011;2224;49.814;8.650;2022-08-06T09:50:55;2.40;;;1.20;;
4422;SDS011;2224;49.814;8.650;2022-08-06T09:53:20;1.33;;;0.90;;
4422;SDS011;2224;49.814;8.650;2022-08-06T09:55:51;1.77;;;1.23;;
4422;SDS011;2224;49.814;8.650;2022-08-06T09:58:31;3.10;;;1.03;;
4422;SDS011;2224;49.814;8.650;2022-08-06T10:01:20;2.50;;;1.40;;
4422;SDS011;2224;49.814;8.650;2022-08-06T10:03:46;4.17;;;1.20;;
4422;SDS011;2224;49.814;8.650;2022-08-06T10:06:13;2.10;;;1.10;;
4422;SDS011;2224;49.814;8.650;2022-08-06T10:08:40;1.50;;;0.90;;
4422;SDS011;2224;49.814;8.650;2022-08-06T10:11:07;1.83;;;1.00;;
4422;SDS011;2224;49.814;8.650;2022-08-06T10:13:33;1.27;;;1.07;;
4422;SDS011;2224;49.814;8.650;2022-08-06T10:16:00;1.50;;;1.10;;
4422;SDS011;2224;49.814;8.650;2022-08-06T10:18:40;2.27;;;1.30;;
4422;SDS011;2224;49.814;8.650;2022-08-06T10:21:08;1.97;;;1.17;;
4422;SDS011;2224;49.814;8.650;2022-08-06T10:23:36;3.87;;;1.13;;
4422;SDS011;2224;49.814;8.650;2022-08-06T10:26:04;1.53;;;1.07;;
4422;SDS011;2224;49.814;8.650;2022-08-06T10:28:33;2.60;;;1.20;;
4422;SDS011;2224;49.814;8.650;2022-08-06T10:31:00;2.00;;;1.00;;
4422;SDS011;2224;49.814;8.650;2022-08-06T10:33:28;4.03;;;1.50;;
4422;SDS011;2224;49.814;8.650;2022-08-06T10:35:57;3.20;;;1.10;;
4422;SDS011;2224;49.814;8.650;2022-08-06T10:38:26;2.30;;;1.30;;
4422;SDS011;2224;49.814;8.650;2022-08-06T10:40:52;1.97;;;1.77;;
4422;SDS011;2224;49.814;8.650;2022-08-06T10:43:18;2.33;;;1.10;;
4422;SDS011;2224;49.814;8.650;2022-08-06T10:45:45;1.70;;;1.30;;
4422;SDS011;2224;49.814;8.650;2022-08-06T10:48:10;1.40;;;1.30;;
4422;SDS011;2224;49.814;8.650;2022-08-06T10:50:35;2.23;;;1.23;;
4422;SDS011;2224;49.814;8.650;2022-08-06T10:53:02;2.80;;;1.27;;
4422;SDS011;2224;49.814;8.650;2022-08-06T10:55:28;2.23;;;1.10;;
4422;SDS011;2224;49.814;8.650;2022-08-06T10:57:54;1.30;;;1.20;;
4422;SDS011;2224;49.814;8.650;2022-08-06T11:00:19;3.20;;;1.20;;
4422;SDS011;2224;49.814;8.650;2022-08-06T11:03:01;1.53;;;1.30;;
4422;SDS011;2224;49.814;8.650;2022-08-06T11:05:36;1.13;;;1.00;;
4422;SDS011;2224;49.814;8.650;2022-08-06T11:10:37;1.63;;;1.27;;
4422;SDS011;2224;49.814;8.650;2022-08-06T11:15:51;1.37;;;1.10;;
4422;SDS011;2224;49.814;8.650;2022-08-06T11:18:17;1.17;;;1.07;;
4422;SDS011;2224;49.814;8.650;2022-08-06T11:20:44;1.83;;;1.17;;
4422;SDS011;2224;49.814;8.650;2022-08-06T11:25:44;1.17;;;1.07;;
4422;SDS011;2224;49.814;8.650;2022-08-06T11:28:12;3.30;;;1.23;;
4422;SDS011;2224;49.814;8.650;2022-08-06T11:33:10;2.10;;;1.33;;
4422;SDS011;2224;49.814;8.650;2022-08-06T11:38:11;1.40;;;1.07;;
4422;SDS011;2224;49.814;8.650;2022-08-06T11:59:44;2.13;;;1.00;;
4422;SDS011;2224;49.814;8.650;2022-08-06T12:02:12;1.17;;;1.07;;
4422;SDS011;2224;49.814;8.650;2022-08-06T12:04:39;1.37;;;1.20;;
4422;SDS011;2224;49.814;8.650;2022-08-06T12:14:54;4.20;;;1.40;;
4422;SDS011;2224;49.814;8.650;2022-08-06T12:17:21;1.37;;;0.80;;
4422;SDS011;2224;49.814;8.650;2022-08-06T12:19:48;2.00;;;0.97;;
4422;SDS011;2224;49.814;8.650;2022-08-06T12:22:17;2.30;;;0.90;;
4422;SDS011;2224;49.814;8.650;2022-08-06T12:24:45;1.90;;;1.13;;
4422;SDS011;2224;49.814;8.650;2022-08-06T12:27:13;2.17;;;0.93;;
4422;SDS011;2224;49.814;8.650;2022-08-06T12:29:40;1.30;;;0.97;;
4422;SDS011;2224;49.814;8.650;2022-08-06T12:34:51;3.30;;;1.30;;
4422;SDS011;2224;49.814;8.650;2022-08-06T12:37:18;3.77;;;1.07;;
4422;SDS011;2224;49.814;8.650;2022-08-06T12:39:44;2.17;;;1.03;;
4422;SDS011;2224;49.814;8.650;2022-08-06T12:42:28;3.67;;;0.90;;
4422;SDS011;2224;49.814;8.650;2022-08-06T12:44:54;2.07;;;1.30;;
4422;SDS011;2224;49.814;8.650;2022-08-06T12:47:20;1.50;;;1.00;;
4422;SDS011;2224;49.814;8.650;2022-08-06T12:49:46;2.70;;;1.27;;
4422;SDS011;2224;49.814;8.650;2022-08-06T12:52:14;1.20;;;1.00;;
4422;SDS011;2224;49.814;8.650;2022-08-06T12:54:45;2.20;;;1.17;;
4422;SDS011;2224;49.814;8.650;2022-08-06T12:59:49;1.37;;;0.70;;
4422;SDS011;2224;49.814;8.650;2022-08-06T13:02:16;2.90;;;1.10;;
4422;SDS011;2224;49.814;8.650;2022-08-06T13:04:44;1.00;;;0.83;;
4422;SDS011;2224;49.814;8.650;2022-08-06T13:07:13;3.07;;;1.20;;
4422;SDS011;2224;49.814;8.650;2022-08-06T13:09:39;1.97;;;0.80;;
4422;SDS011;2224;49.814;8.650;2022-08-06T13:12:22;3.67;;;0.97;;
4422;SDS011;2224;49.814;8.650;2022-08-06T13:14:49;1.30;;;0.90;;
4422;SDS011;2224;49.814;8.650;2022-08-06T13:17:21;1.57;;;0.77;;
4422;SDS011;2224;49.814;8.650;2022-08-06T13:22:17;0.80;;;0.67;;
4422;SDS011;2224;49.814;8.650;2022-08-06T13:24:42;1.13;;;0.70;;
4422;SDS011;2224;49.814;8.650;2022-08-06T13:27:08;1.97;;;1.00;;
4422;SDS011;2224;49.814;8.650;2022-08-06T13:29:33;1.20;;;0.90;;
4422;SDS011;2224;49.814;8.650;2022-08-06T13:34:29;2.00;;;1.00;;
4422;SDS011;2224;49.814;8.650;2022-08-06T13:37:10;2.63;;;1.13;;
4422;SDS011;2224;49.814;8.650;2022-08-06T13:39:35;1.07;;;0.73;;
4422;SDS011;2224;49.814;8.650;2022-08-06T13:42:09;1.00;;;0.60;;
4422;SDS011;2224;49.814;8.650;2022-08-06T13:44:39;1.47;;;0.90;;
4422;SDS011;2224;49.814;8.650;2022-08-06T13:47:06;2.30;;;1.33;;
4422;SDS011;2224;49.814;8.650;2022-08-06T13:49:32;2.30;;;0.97;;
4422;SDS011;2224;49.814;8.650;2022-08-06T13:51:58;3.70;;;0.93;;
4422;SDS011;2224;49.814;8.650;2022-08-06T13:54:23;0.90;;;0.70;;
4422;SDS011;2224;49.814;8.650;2022-08-06T13:56:50;1.93;;;0.90;;
4422;SDS011;2224;49.814;8.650;2022-08-06T13:59:16;1.63;;;0.77;;
4422;SDS011;2224;49.814;8.650;2022-08-06T14:01:43;1.47;;;0.77;;
4422;SDS011;2224;49.814;8.650;2022-08-06T14:04:09;0.80;;;0.60;;
4422;SDS011;2224;49.814;8.650;2022-08-06T14:06:34;1.83;;;0.93;;
4422;SDS011;2224;49.814;8.650;2022-08-06T14:08:59;1.80;;;0.77;;
4422;SDS011;2224;49.814;8.650;2022-08-06T14:11:25;2.03;;;1.00;;
4422;SDS011;2224;49.814;8.650;2022-08-06T14:13:50;2.03;;;0.90;;
4422;SDS011;2224;49.814;8.650;2022-08-06T14:16:16;2.03;;;0.70;;
4422;SDS011;2224;49.814;8.650;2022-08-06T14:18:41;3.33;;;0.80;;
4422;SDS011;2224;49.814;8.650;2022-08-06T14:21:06;1.73;;;0.80;;
4422;SDS011;2224;49.814;8.650;2022-08-06T14:23:32;2.07;;;0.80;;
4422;SDS011;2224;49.814;8.650;2022-08-06T14:25:57;0.90;;;0.53;;
4422;SDS011;2224;49.814;8.650;2022-08-06T14:28:23;3.43;;;0.80;;
4422;SDS011;2224;49.814;8.650;2022-08-06T14:30:49;2.70;;;0.90;;
4422;SDS011;2224;49.814;8.650;2022-08-06T14:33:14;1.00;;;0.80;;
4422;SDS011;2224;49.814;8.650;2022-08-06T14:35:39;1.50;;;0.80;;
4422;SDS011;2224;49.814;8.650;2022-08-06T14:38:05;0.90;;;0.63;;
4422;SDS011;2224;49.814;8.650;2022-08-06T14:40:31;1.37;;;0.87;;
4422;SDS011;2224;49.814;8.650;2022-08-06T14:43:15;2.00;;;0.60;;
4422;SDS011;2224;49.814;8.650;2022-08-06T14:45:59;0.80;;;0.60;;
4422;SDS011;2224;49.814;8.650;2022-08-06T14:48:24;2.50;;;0.90;;
4422;SDS011;2224;49.814;8.650;2022-08-06T14:50:49;3.23;;;0.97;;
4422;SDS011;2224;49.814;8.650;2022-08-06T14:53:15;2.70;;;0.90;;
4422;SDS011;2224;49.814;8.650;2022-08-06T14:55:40;2.80;;;1.07;;
4422;SDS011;2224;49.814;8.650;2022-08-06T14:58:05;2.17;;;0.83;;
4422;SDS011;2224;49.814;8.650;2022-08-06T15:00:31;2.40;;;0.97;;
4422;SDS011;2224;49.814;8.650;2022-08-06T15:02:56;1.33;;;0.87;;
4422;SDS011;2224;49.814;8.650;2022-08-06T15:05:21;1.53;;;0.67;;
4422;SDS011;2224;49.814;8.650;2022-08-06T15:07:47;1.20;;;0.90;;
4422;SDS011;2224;49.814;8.650;2022-08-06T15:10:12;3.63;;;0.90;;
4422;SDS011;2224;49.814;8.650;2022-08-06T15:12:37;1.10;;;0.80;;
4422;SDS011;2224;49.814;8.650;2022-08-06T15:15:03;2.10;;;1.30;;
4422;SDS011;2224;49.814;8.650;2022-08-06T15:17:29;1.90;;;0.90;;
4422;SDS011;2224;49.814;8.650;2022-08-06T15:19:55;3.10;;;1.17;;
4422;SDS011;2224;49.814;8.650;2022-08-06T15:22:20;0.80;;;0.50;;
4422;SDS011;2224;49.814;8.650;2022-08-06T15:24:46;0.70;;;0.50;;
4422;SDS011;2224;49.814;8.650;2022-08-06T15:27:11;1.23;;;0.90;;
4422;SDS011;2224;49.814;8.650;2022-08-06T15:29:37;1.57;;;0.90;;
4422;SDS011;2224;49.814;8.650;2022-08-06T15:32:02;1.00;;;0.70;;
4422;SDS011;2224;49.814;8.650;2022-08-06T15:34:28;2.20;;;0.73;;
4422;SDS011;2224;49.814;8.650;2022-08-06T15:36:54;1.67;;;0.70;;
4422;SDS011;2224;49.814;8.650;2022-08-06T15:39:20;4.83;;;0.90;;
4422;SDS011;2224;49.814;8.650;2022-08-06T15:41:45;3.10;;;1.53;;
4422;SDS011;2224;49.814;8.650;2022-08-06T15:44:11;1.70;;;0.90;;
4422;SDS011;2224;49.814;8.650;2022-08-06T15:46:37;3.03;;;0.93;;
4422;SDS011;2224;49.814;8.650;2022-08-06T15:49:02;1.47;;;0.80;;
4422;SDS011;2224;49.814;8.650;2022-08-06T15:51:27;2.77;;;1.00;;
4422;SDS011;2224;49.814;8.650;2022-08-06T15:53:53;1.33;;;0.80;;
4422;SDS011;2224;49.814;8.650;2022-08-06T15:56:18;0.90;;;0.70;;
4422;SDS011;2224;49.814;8.650;2022-08-06T15:58:44;0.80;;;0.70;;
4422;SDS011;2224;49.814;8.650;2022-08-06T16:01:10;0.90;;;0.60;;
4422;SDS011;2224;49.814;8.650;2022-08-06T16:03:36;2.67;;;0.90;;
4422;SDS011;2224;49.814;8.650;2022-08-06T16:06:02;2.13;;;0.90;;
4422;SDS011;2224;49.814;8.650;2022-08-06T16:08:27;3.90;;;1.00;;
4422;SDS011;2224;49.814;8.650;2022-08-06T16:10:52;1.57;;;0.60;;
4422;SDS011;2224;49.814;8.650;2022-08-06T16:13:18;1.50;;;1.00;;
4422;SDS011;2224;49.814;8.650;2022-08-06T16:15:48;1.20;;;0.90;;
4422;SDS011;2224;49.814;8.650;2022-08-06T16:18:18;1.67;;;0.73;;
4422;SDS011;2224;49.814;8.650;2022-08-06T16:20:46;3.23;;;0.87;;
4422;SDS011;2224;49.814;8.650;2022-08-06T16:23:12;1.20;;;1.03;;
4422;SDS011;2224;49.814;8.650;2022-08-06T16:25:39;2.40;;;1.00;;
4422;SDS011;2224;49.814;8.650;2022-08-06T16:28:05;1.30;;;0.80;;
4422;SDS011;2224;49.814;8.650;2022-08-06T16:30:32;1.60;;;1.20;;
4422;SDS011;2224;49.814;8.650;2022-08-06T16:32:58;2.70;;;1.10;;
4422;SDS011;2224;49.814;8.650;2022-08-06T16:35:23;1.63;;;0.90;;
4422;SDS011;2224;49.814;8.650;2022-08-06T16:37:50;3.57;;;0.90;;
4422;SDS011;2224;49.814;8.650;2022-08-06T16:40:16;3.93;;;1.00;;
4422;SDS011;2224;49.814;8.650;2022-08-06T16:42:41;1.57;;;0.83;;